»·PEaware :: FDX1436 KONT-KOAK

FDX1436 :: KONT-KOAK

FLIGHT INFORMATION

Flight Status: Arrived
Operator:
Federal Express
More flights by this operator :: More flights under this callsign
Pilot: Anonymous 10623 (10623)
Aircraft: BOEING 757-200
(B752)
More flights by this aircraft type
Origin: KONT Ontario Intl
United States
Destination: KOAK Metro Oakland Intl
United States
More flights between these airports :: More routes between these airports
Route: SNSHN5 COREZ RGOOD EMZOH3
File this flight plan on PilotEdge
Remarks:
Altitude:
(Current/Filed)
32,000ft
Speed:
(Current/Filed)
428kts
Departed: 31-Aug-21 02:14 PM
Arrived: 31-Aug-21 03:10 PM
Distance/Time
Traveled:
314nm/0:56
Distance/Time
To Go:
Arrived

Flight Plot

Page will automatically refresh every two minutes.

Flight plan parsing failed; only flown route is shown


Map Options




Map Legend


Flown Route
Filed Route
Departure Airport
Arrival Airport
Navaid (VOR, NDB)
Fix

Horizontal Profiles

Position Reports

Time Latitude Longitude Heading Altitude Ground
Speed
31-Aug-21 13:40 34.052478 -117.613515 301 955ft 0kts
31-Aug-21 13:41 34.052478 -117.613515 301 955ft 0kts
31-Aug-21 13:42 34.052478 -117.613515 301 955ft 0kts
31-Aug-21 13:43 34.052478 -117.613515 301 955ft 0kts
31-Aug-21 13:44 34.052478 -117.613515 301 955ft 0kts
31-Aug-21 13:45 34.052478 -117.613515 301 955ft 0kts
31-Aug-21 13:46 34.052478 -117.613515 301 955ft 0kts
31-Aug-21 13:47 34.052478 -117.613515 301 955ft 0kts
31-Aug-21 13:48 34.052478 -117.613515 301 955ft 0kts
31-Aug-21 13:49 34.052478 -117.613515 301 954ft 0kts
31-Aug-21 13:50 34.052478 -117.613515 301 954ft 0kts
31-Aug-21 13:51 34.052478 -117.613515 301 954ft 0kts
31-Aug-21 13:52 34.052478 -117.613515 301 954ft 0kts
31-Aug-21 13:53 34.052478 -117.613515 301 954ft 0kts
31-Aug-21 13:54 34.052478 -117.613515 301 954ft 0kts
31-Aug-21 13:55 34.052478 -117.613515 301 954ft 0kts
31-Aug-21 13:56 34.052478 -117.613515 301 954ft 0kts
31-Aug-21 13:57 34.052478 -117.613515 301 954ft 0kts
31-Aug-21 13:58 34.052478 -117.613515 301 954ft 0kts
31-Aug-21 13:59 34.052478 -117.613515 301 954ft 0kts
31-Aug-21 14:00 34.052474 -117.613507 301 954ft 1kts
31-Aug-21 14:01 34.052156 -117.612903 302 954ft 2kts
31-Aug-21 14:02 34.051936 -117.612488 301 954ft 3kts
31-Aug-21 14:03 34.052526 -117.612869 1 954ft 0kts
31-Aug-21 14:04 34.052526 -117.612869 1 954ft 0kts
31-Aug-21 14:05 34.053304 -117.612866 357 954ft 9kts
31-Aug-21 14:06 34.053854 -117.609737 90 954ft 14kts
31-Aug-21 14:07 34.053847 -117.604306 89 954ft 15kts
31-Aug-21 14:08 34.053843 -117.598159 88 954ft 20kts
31-Aug-21 14:09 34.053855 -117.591789 88 954ft 23kts
31-Aug-21 14:10 34.053846 -117.585883 89 954ft 11kts
31-Aug-21 14:11 34.053911 -117.582927 78 954ft 4kts
31-Aug-21 14:12 34.054766 -117.582541 339 954ft 3kts
31-Aug-21 14:13 34.054963 -117.584996 270 954ft 48kts
31-Aug-21 14:14 34.054750 -117.625728 272 1643ft 163kts
31-Aug-21 14:15 34.057691 -117.687951 272 2419ft 227kts
31-Aug-21 14:16 34.073775 -117.767759 285 4119ft 261kts
31-Aug-21 14:17 34.116928 -117.838150 308 6501ft 268kts
31-Aug-21 14:18 34.161046 -117.912283 304 8773ft 276kts
31-Aug-21 14:19 34.206507 -117.989429 305 10245ft 313kts
31-Aug-21 14:20 34.260386 -118.081056 306 11883ft 343kts
31-Aug-21 14:21 34.318848 -118.175477 308 13783ft 356kts
31-Aug-21 14:22 34.378996 -118.270465 307 15579ft 366kts
31-Aug-21 14:23 34.441936 -118.370164 307 17274ft 378kts
31-Aug-21 14:24 34.506653 -118.472977 307 18923ft 387kts
31-Aug-21 14:25 34.572573 -118.578000 307 20553ft 395kts
31-Aug-21 14:26 34.639470 -118.684895 307 22160ft 403kts
31-Aug-21 14:27 34.708002 -118.794714 307 22946ft 411kts
31-Aug-21 14:28 34.776135 -118.904161 308 24319ft 416kts
31-Aug-21 14:29 34.869978 -118.988335 329 25579ft 426kts
31-Aug-21 14:30 34.973366 -119.062588 329 26770ft 435kts
31-Aug-21 14:31 35.076598 -119.136648 329 27928ft 443kts
31-Aug-21 14:32 35.182804 -119.213052 329 29056ft 450kts
31-Aug-21 14:33 35.291885 -119.291766 329 30209ft 457kts
31-Aug-21 14:34 35.400580 -119.370454 329 31309ft 463kts
31-Aug-21 14:35 35.510896 -119.450570 329 31745ft 457kts
31-Aug-21 14:36 35.613011 -119.541633 320 31743ft 457kts
31-Aug-21 14:37 35.709339 -119.639773 320 31745ft 456kts
31-Aug-21 14:38 35.806009 -119.738837 320 31754ft 455kts
31-Aug-21 14:39 35.903253 -119.838850 320 31761ft 455kts
31-Aug-21 14:40 35.993240 -119.944398 316 31761ft 455kts
31-Aug-21 14:41 36.084458 -120.052775 316 31761ft 455kts
31-Aug-21 14:42 36.175472 -120.161205 316 31763ft 455kts
31-Aug-21 14:43 36.266707 -120.270262 316 31764ft 454kts
31-Aug-21 14:44 36.357307 -120.378942 316 31476ft 453kts
31-Aug-21 14:45 36.445558 -120.485113 315 29667ft 429kts
31-Aug-21 14:46 36.529558 -120.586567 315 27868ft 412kts
31-Aug-21 14:47 36.614221 -120.680879 317 25804ft 404kts
31-Aug-21 14:48 36.697425 -120.773162 317 23742ft 394kts
31-Aug-21 14:49 36.776870 -120.861541 317 21717ft 385kts
31-Aug-21 14:50 36.855479 -120.948634 317 19948ft 370kts
31-Aug-21 14:51 36.930914 -121.032464 317 18316ft 354kts
31-Aug-21 14:52 37.002103 -121.111770 317 16734ft 342kts
31-Aug-21 14:53 37.072854 -121.190814 316 15228ft 335kts
31-Aug-21 14:54 37.141959 -121.268552 315 15010ft 335kts
31-Aug-21 14:55 37.211907 -121.349849 315 13223ft 339kts
31-Aug-21 14:56 37.279070 -121.428060 315 11788ft 325kts
31-Aug-21 14:57 37.344659 -121.504652 315 10206ft 317kts
31-Aug-21 14:58 37.404111 -121.573374 315 9620ft 284kts
31-Aug-21 15:00 37.457118 -121.644566 304 8358ft 275kts
31-Aug-21 15:01 37.501484 -121.722130 303 6932ft 273kts
31-Aug-21 15:02 37.534499 -121.803133 277 6527ft 272kts
31-Aug-21 15:03 37.545699 -121.895931 276 5391ft 265kts
31-Aug-21 15:04 37.556553 -121.987262 281 4272ft 259kts
31-Aug-21 15:05 37.595432 -122.056070 309 3253ft 233kts
31-Aug-21 15:06 37.633777 -122.112948 309 2109ft 189kts
31-Aug-21 15:07 37.663531 -122.157396 308 1207ft 142kts
31-Aug-21 15:08 37.686323 -122.191225 309 487ft 123kts
31-Aug-21 15:09 37.707654 -122.223457 310 16ft 91kts
31-Aug-21 15:10 37.713513 -122.231133 338 15ft 20kts
31-Aug-21 15:11 37.714113 -122.229459 130 15ft 8kts
31-Aug-21 15:12 37.712033 -122.225767 85 15ft 10kts
31-Aug-21 15:13 37.713454 -122.222028 81 15ft 11kts
31-Aug-21 15:14 37.714760 -122.219952 28 15ft 5kts
31-Aug-21 15:15 37.716399 -122.220049 57 15ft 11kts
31-Aug-21 15:16 37.717156 -122.220186 311 15ft 0kts
31-Aug-21 15:17 37.717156 -122.220186 311 15ft 0kts
31-Aug-21 15:18 37.717156 -122.220186 311 15ft 0kts
31-Aug-21 15:19 37.717156 -122.220186 311 15ft 0kts

Navigation Log

Ident Type
Flight plan parsing failed, navigation log unavailable